Tiempo atmosférico en la estación meteorológica de Tudela Ii, Navarra (300 m.)



Fecha
DESCASC
Temp. máxima en grados centígrados (hora)
DESCASC
Temp. mínima en grados centígrados (hora)
DESCASC
Temp. media en grados centígrados
DESCASC
Racha de viento máxima en m/sg (hora)
DESCASC
Velocidad máxima media en intervalos de 10 minutos(hora)
DESCASC
Precipitaciones diarias en mm
DESCASC
Precipitaciones de 00:00 a 06:00 en mm
DESCASC
Precipitaciones de 06:00 a 12:00 en mm
DESCASC
Precipitaciones de 12:00 a 18:00 en mm
DESCASC
Precipitaciones de 18:00 a 24:00 en mm
DESCASC

Gráficas

Temp. máximas Temp. mínimas Temp. medias Precipitaciones Rachas de viento máximas Velocidades máximas media en intervalos de 10 minutos

Datos horarios

Fecha y hora oficial Temperatura (ºC) Velocidad del viento (km/h) Dirección del viento Racha (km/h) Dirección de racha Precipitación (mm) Presión (hPa) Tendencia (hPa) Humedad (%)
2019-10-21 23:00:00 9.6 5 Noroeste 9 Noroeste 0 -- -- 79
2019-10-21 22:00:00 10 0 Calma 6 Sudoeste 0 -- -- 74
2019-10-21 21:00:00 11.5 4 Oeste 8 Oeste 0 -- -- 68
2019-10-21 20:00:00 12.9 0 Calma 4 Sur 0 -- -- 62
2019-10-21 19:00:00 15 2 Sudoeste 9 Sur 0 -- -- 51
2019-10-21 18:00:00 16.2 3 Sur 9 Este 0 -- -- 44
2019-10-21 17:00:00 17 0 Calma 9 Sudeste 0 -- -- 44
2019-10-21 16:00:00 16.7 3 Sur 10 Sur 0 -- -- 46
2019-10-21 15:00:00 15.4 5 Nordeste 11 Nordeste 0 -- -- 55
2019-10-21 14:00:00 15.5 3 Nordeste 14 Nordeste 0 -- -- 61
2019-10-21 13:00:00 14 5 Noroeste 16 Oeste 0 -- -- 62
2019-10-21 12:00:00 12.5 5 Noroeste 14 Norte 0 -- -- 72
2019-10-21 11:00:00 10.8 4 Norte 12 Norte 0 -- -- 76
2019-10-21 10:00:00 9.4 2 Oeste 9 Sudeste 0 -- -- 88
2019-10-21 09:00:00 9.1 3 Norte 6 Norte 0 -- -- 84
2019-10-21 08:00:00 8.6 4 Nordeste 8 Norte 0 -- -- 89
2019-10-21 07:00:00 7.7 2 Oeste 12 Oeste 0 -- -- 93
2019-10-21 06:00:00 7.8 6 Oeste 11 Oeste 0 -- -- 93
2019-10-21 05:00:00 8 3 Noroeste 8 Norte 0 -- -- 93
2019-10-21 04:00:00 7.9 3 Nordeste 6 Nordeste 0 -- -- 94
2019-10-21 03:00:00 8.4 0 Calma 3 Oeste 0 -- -- 92
2019-10-21 02:00:00 9.2 0 Calma 5 Oeste 0 -- -- 89
2019-10-21 01:00:00 10.3 2 Oeste 10 Norte 0 -- -- 84
2019-10-21 00:00:00 11 3 Norte 15 Oeste 0 -- -- 81
2019-10-20 23:00:00 11.1 6 Noroeste 24 Noroeste 0 -- -- 81
2019-10-20 22:00:00 11.3 6 Noroeste 23 Noroeste 0 -- -- 84
2019-10-20 21:00:00 11.2 6 Noroeste 24 Noroeste 0.6 -- -- 88
2019-10-20 20:00:00 11.7 8 Noroeste 24 Noroeste 0.2 -- -- 87
2019-10-20 19:00:00 11.7 3 Oeste 18 Oeste 0.2 -- -- 90
2019-10-20 18:00:00 12.1 8 Noroeste 35 Noroeste 0.6 -- -- 85
2019-10-20 17:00:00 14.6 15 Norte 36 Norte 0 -- -- 70
2019-10-20 16:00:00 18.6 11 Noroeste 28 Norte 0 -- -- 53
2019-10-20 15:00:00 18.6 10 Sudoeste 23 Sudoeste 0 -- -- 49
2019-10-20 14:00:00 16.9 5 Sudoeste 24 Sudoeste 0 -- -- 55
2019-10-20 13:00:00 16.2 7 Sudoeste 21 Sudoeste 0 -- -- 58
2019-10-20 12:00:00 15.8 7 Sudoeste 33 Sudoeste 0 -- -- 60
2019-10-20 11:00:00 16.3 14 Sudoeste 27 Sudoeste 0 -- -- 57
2019-10-20 10:00:00 15 7 Sudoeste 21 Sudoeste 0 -- -- 63
2019-10-20 09:00:00 14.4 10 Oeste 22 Sudoeste 0 -- -- 65
2019-10-20 08:00:00 14.9 5 Sudoeste 21 Oeste 0 -- -- 64
2019-10-20 07:00:00 15.1 8 Sur 21 Sudoeste 0 -- -- 69
2019-10-20 06:00:00 15.9 6 Sur 30 Sudeste 0 -- -- 78
2019-10-20 05:00:00 16 21 Sudeste 40 Sudeste 0 -- -- 77
2019-10-20 04:00:00 15.7 22 Sudeste 35 Sudeste 0 -- -- 81
2019-10-20 03:00:00 15.8 14 Sudeste 29 Sudeste 0 -- -- 85
2019-10-20 02:00:00 15.7 12 Sudeste 23 Sudeste 1.6 -- -- 87
2019-10-20 01:00:00 17.3 6 Sur 21 Sudeste 1.2 -- -- 80
2019-10-20 00:00:00 19.8 6 Sudeste 24 Sudeste 0 -- -- 59
2019-10-19 23:00:00 19.7 12 Sur 27 Sudeste 0 -- -- 58
2019-10-19 22:00:00 19.5 6 Sudoeste 30 Sur 0 -- -- 56
2019-10-19 21:00:00 19.6 10 Sur 22 Sur 0 -- -- 56
2019-10-19 20:00:00 19.8 3 Oeste 9 Sur 0 -- -- 51
2019-10-19 19:00:00 21.1 3 Sur 11 Sudeste 0 -- -- 47
2019-10-19 18:00:00 21.8 3 Sur 6 Sur 0 -- -- 43
2019-10-19 17:00:00 21.7 4 Nordeste 16 Sudeste 0 -- -- 45
2019-10-19 16:00:00 21.7 10 Sudeste 29 Sudeste 0 -- -- 45
2019-10-19 15:00:00 22.3 9 Sur 26 Noroeste 0 -- -- 43
2019-10-19 14:00:00 21.3 9 Norte 19 Noroeste 0 -- -- 46
2019-10-19 13:00:00 20.2 8 Norte 16 Nordeste 0 -- -- 56
2019-10-19 12:00:00 19.4 5 Este 11 Nordeste 0 -- -- 56
2019-10-19 11:00:00 17.4 3 Norte 17 Oeste 0.4 -- -- 66
2019-10-19 10:00:00 17.7 9 Sudoeste 25 Noroeste 0 -- -- 58
2019-10-19 09:00:00 16.8 11 Oeste 24 Oeste 0 -- -- 62
2019-10-19 08:00:00 16.8 6 Sudoeste 19 Sudoeste 0 -- -- 64
2019-10-19 07:00:00 17.2 10 Sudoeste 25 Sudoeste 0 -- -- 63
2019-10-19 06:00:00 16.7 3 Sudoeste 13 Norte 0 -- -- 72
2019-10-19 05:00:00 17 3 Noroeste 9 Noroeste 0 -- -- 75
2019-10-19 04:00:00 18.2 5 Noroeste 12 Oeste 0 -- -- 70
2019-10-19 03:00:00 17.7 4 Noroeste 11 Sur 0 -- -- 73
2019-10-19 02:00:00 17.3 5 Nordeste 15 Sur 0 -- -- 78
2019-10-19 01:00:00 17.2 7 Sur 32 Sudeste 0 -- -- 83
2019-10-19 00:00:00 17.3 10 Sudeste 19 Sudeste 0 -- -- 83
2019-10-18 23:00:00 17 6 Sur 15 Sudeste 0 -- -- 88
2019-10-18 22:00:00 17.4 5 Sudeste 21 Sudeste 0 -- -- 86
2019-10-18 21:00:00 17.8 9 Sudeste 21 Sur 0 -- -- 83
2019-10-18 20:00:00 18.3 9 Sur 18 Sur 0 -- -- 83
2019-10-18 19:00:00 19 9 Sudeste 19 Sudeste 0 -- -- 83
2019-10-18 18:00:00 19.4 9 Sudeste 19 Sudeste 0 -- -- 79
2019-10-18 17:00:00 19.7 9 Sudeste 18 Sudeste 0 -- -- 78
2019-10-18 16:00:00 19.2 6 Sudeste 17 Sudeste 0 -- -- 78
2019-10-18 15:00:00 18.7 7 Sudeste 17 Sudeste 0 -- -- 77
2019-10-18 14:00:00 17.3 4 Sudeste 8 Sudeste 0 -- -- 84
2019-10-18 13:00:00 16 3 Sur 13 Sudeste 0 -- -- 89
2019-10-18 12:00:00 15.3 4 Sudeste 12 Sudeste 0 -- -- 90
2019-10-18 11:00:00 14.6 4 Nordeste 8 Sur 0 -- -- 94
2019-10-18 10:00:00 14.1 4 Sudeste 10 Este 0 -- -- 95
2019-10-18 09:00:00 13.9 4 Este 9 Sur 0.4 -- -- 96
2019-10-18 08:00:00 13.8 4 Sudoeste 10 Oeste 0 -- -- 96
2019-10-18 07:00:00 13.8 4 Sudeste 17 Sudeste 4.2 -- -- 94
2019-10-18 06:00:00 14.1 3 Sur 9 Oeste 1.8 -- -- 93
2019-10-18 05:00:00 14.1 5 Norte 15 Oeste 0 -- -- 90
2019-10-18 04:00:00 14 5 Nordeste 13 Nordeste 0 -- -- 89
2019-10-18 03:00:00 14.2 8 Nordeste 14 Nordeste 0.6 -- -- 85
2019-10-18 02:00:00 15.7 0 Calma 13 Oeste 0 -- -- 73
2019-10-18 01:00:00 15.4 6 Sur 15 Sur 0 -- -- 73
2019-10-18 00:00:00 16.7 3 Sudoeste 17 Oeste 0 -- -- 70
2019-10-17 23:00:00 17.3 6 Oeste 20 Sur 0 -- -- 67
2019-10-17 22:00:00 18.7 9 Sudoeste 21 Oeste 0 -- -- 62
2019-10-17 21:00:00 19 5 Sudoeste 13 Sur 0 -- -- 62
2019-10-17 20:00:00 19.8 5 Sur 14 Sudoeste 0 -- -- 61
2019-10-17 19:00:00 21.2 5 Sudoeste 21 Sudoeste 0 -- -- 56
2019-10-17 18:00:00 22.4 10 Sudoeste 27 Sudoeste 0 -- -- 52
2019-10-17 17:00:00 21.6 12 Sudoeste 31 Sudoeste 0 -- -- 55
2019-10-17 16:00:00 21.7 14 Sur 26 Sur 0 -- -- 53
2019-10-17 15:00:00 19.8 13 Sudeste 23 Sur 0 -- -- 52
2019-10-17 14:00:00 18.5 10 Sudeste 19 Sudeste 0 -- -- 53
2019-10-17 13:00:00 16.6 10 Sudeste 16 Sudeste 0 -- -- 55
2019-10-17 12:00:00 16.9 7 Sur 16 Sur 0 -- -- 54
2019-10-17 11:00:00 14.5 8 Sur 17 Sudeste 0 -- -- 63
2019-10-17 10:00:00 14 4 Sur 9 Sudeste 0 -- -- 65
2019-10-17 09:00:00 13.2 3 Sudeste 5 Nordeste 0 -- -- 71
2019-10-17 08:00:00 13.4 3 Noroeste 6 Este 0 -- -- 66
2019-10-17 07:00:00 13.6 4 Sudeste 7 Sudoeste 0 -- -- 63
2019-10-17 06:00:00 12.5 0 Calma 8 Sudeste 0 -- -- 67
2019-10-17 05:00:00 12.5 4 Este 11 Sur 0 -- -- 67
2019-10-17 04:00:00 12.2 5 Sudoeste 12 Sur 0 -- -- 67
2019-10-17 03:00:00 13.1 2 Nordeste 13 Oeste 0 -- -- 64
2019-10-17 02:00:00 14.1 4 Norte 9 Oeste 0 -- -- 61
2019-10-17 01:00:00 14.5 3 Noroeste 11 Sur 0 -- -- 59
2019-10-17 00:00:00 15.2 5 Sur 15 Sudoeste 0 -- -- 57
2019-10-16 23:00:00 17.2 6 Sudoeste 16 Oeste 0 -- -- 47
2019-10-16 22:00:00 16.2 3 Sudoeste 10 Sudoeste 0 -- -- 52
2019-10-16 21:00:00 16.7 3 Sur 10 Oeste 0 -- -- 54
2019-10-16 20:00:00 18.4 5 Nordeste 8 Sudeste 0 -- -- 47
2019-10-16 19:00:00 20 6 Sudeste 16 Sudeste 0 -- -- 42
2019-10-16 18:00:00 20.8 7 Sudeste 17 Sudeste 0 -- -- 40
2019-10-16 17:00:00 21.3 9 Sudeste 23 Sur 0 -- -- 39
2019-10-16 16:00:00 21 14 Sudeste 26 Sudeste 0 -- -- 39
2019-10-16 15:00:00 20.1 10 Sur 23 Sur 0 -- -- 43
2019-10-16 14:00:00 19.5 15 Sudeste 27 Sudeste 0 -- -- 43
2019-10-16 13:00:00 17.2 13 Sudeste 31 Este 0 -- -- 53
2019-10-16 12:00:00 18.2 13 Sudoeste 34 Oeste 0 -- -- 49
2019-10-16 11:00:00 15.4 10 Sudeste 22 Sur 0 -- -- 56
2019-10-16 10:00:00 14 10 Sudeste 24 Sudeste 0 -- -- 58
2019-10-16 09:00:00 11.4 9 Sudeste 16 Sudeste 0 -- -- 69
2019-10-16 08:00:00 14.2 4 Sudoeste 25 Sudoeste 0 -- -- 59
2019-10-16 07:00:00 14.6 8 Sudoeste 17 Sudoeste 0 -- -- 55
2019-10-16 06:00:00 14.8 6 Sudoeste 19 Sudoeste 0 -- -- 54
2019-10-16 05:00:00 13.2 3 Sudeste 10 Sudoeste 0 -- -- 62
2019-10-16 04:00:00 12.6 5 Sudeste 12 Sur 0 -- -- 65
2019-10-16 03:00:00 12.5 8 Sur 14 Sudeste 0 -- -- 65
2019-10-16 02:00:00 13.5 4 Sudoeste 12 Sudoeste 0 -- -- 55
2019-10-16 01:00:00 12.2 0 Calma 5 Sur 0 -- -- 62
2019-10-16 00:00:00 12.2 0 Calma 6 Oeste 0 -- -- 59
2019-10-15 23:00:00 12.9 4 Oeste 9 Oeste 0 -- -- 55
2019-10-15 22:00:00 13.4 6 Oeste 13 Oeste 0 -- -- 56
2019-10-15 21:00:00 14.5 5 Sudoeste 6 Sudoeste 0 -- -- 55
2019-10-15 20:00:00 16 2 Noroeste 5 Nordeste 0 -- -- 52
2019-10-15 19:00:00 17.8 3 Norte 8 Sudeste 0 -- -- 46
2019-10-15 18:00:00 18.9 4 Noroeste 10 Norte 0 -- -- 40
2019-10-15 17:00:00 19.2 5 Norte 13 Nordeste 0 -- -- 41
2019-10-15 16:00:00 18.4 6 Nordeste 14 Este 0 -- -- 44
2019-10-15 15:00:00 17.8 7 Este 15 Norte 0 -- -- 45
2019-10-15 14:00:00 17.2 4 Nordeste 16 Nordeste 0 -- -- 47
2019-10-15 13:00:00 15.2 10 Nordeste 17 Nordeste 0 -- -- 57
2019-10-15 12:00:00 13.8 8 Nordeste 17 Nordeste 0 -- -- 61
2019-10-15 11:00:00 13 7 Norte 15 Norte 0 -- -- 61
2019-10-15 10:00:00 11.1 5 Nordeste 11 Norte 0 -- -- 72
2019-10-15 09:00:00 8.6 0 Calma 7 Norte 0 -- -- 77
2019-10-15 08:00:00 9.2 3 Oeste 9 Oeste 0 -- -- 75
2019-10-15 07:00:00 10.1 4 Oeste 10 Noroeste 0 -- -- 72
2019-10-15 06:00:00 10.9 3 Norte 21 Oeste 0 -- -- 71
2019-10-15 05:00:00 12.3 8 Oeste 18 Noroeste 0 -- -- 59
2019-10-15 04:00:00 12.2 6 Oeste 20 Noroeste 0 -- -- 68
2019-10-15 03:00:00 12.8 6 Noroeste 17 Noroeste 0 -- -- 63
2019-10-15 02:00:00 13.3 6 Noroeste 14 Oeste 0 -- -- 64
2019-10-15 01:00:00 13.1 4 Noroeste 18 Oeste 0 -- -- 69
2019-10-15 00:00:00 13.8 7 Oeste 22 Oeste 0 -- -- 64
2019-10-14 23:00:00 13.9 5 Oeste 28 Oeste 0 -- -- 62
2019-10-14 22:00:00 14.8 14 Oeste 38 Oeste 0 -- -- 56
2019-10-14 21:00:00 15.4 12 Oeste 48 Oeste 0 -- -- 55
2019-10-14 20:00:00 18.7 7 Norte 40 Sudoeste 0 -- -- 57
2019-10-14 19:00:00 22.2 17 Sudoeste 32 Sudoeste 0 -- -- 38
2019-10-14 18:00:00 23.2 15 Sudoeste 30 Sur 0 -- -- 41
2019-10-14 17:00:00 21 8 Sur 30 Sudeste 0 -- -- 70
2019-10-14 16:00:00 20.2 15 Sudeste 28 Este 0 -- -- 74
2019-10-14 15:00:00 20.2 13 Sudeste 28 Sudeste 1.4 -- -- 75
2019-10-14 14:00:00 20.4 15 Sudeste 41 Sudeste 0.8 -- -- 74
2019-10-14 13:00:00 19.8 22 Sudeste 43 Sudeste 0 -- -- 77
2019-10-14 12:00:00 18.9 28 Sudeste 51 Sudeste 0 -- -- 84
2019-10-14 11:00:00 18.7 28 Sudeste 51 Sudeste 0 -- -- 84
2019-10-14 10:00:00 17.7 23 Sur 39 Sudeste 0 -- -- 88
2019-10-14 09:00:00 17.2 5 Este 34 Sudeste 0 -- -- 90
2019-10-14 08:00:00 17.4 26 Sudeste 42 Sudeste 0 -- -- 87
2019-10-14 07:00:00 17.7 19 Sudeste 33 Sudeste 0 -- -- 86
2019-10-14 06:00:00 17.4 6 Sudeste 24 Sudeste 0 -- -- 88
2019-10-14 05:00:00 17.3 10 Sudeste 29 Sudeste 0 -- -- 88
2019-10-14 04:00:00 17.6 18 Sudeste 32 Sur 0 -- -- 87
2019-10-14 03:00:00 18.1 16 Sudeste 27 Sur 0 -- -- 85
2019-10-14 02:00:00 18.6 15 Sudeste 35 Sur 0 -- -- 82
2019-10-14 01:00:00 19.1 13 Sudeste 40 Sudeste 0 -- -- 82
2019-10-14 00:00:00 20 23 Sudeste 36 Sudeste 0 -- -- 78
2019-10-13 23:00:00 21.3 23 Sudeste 39 Sudeste 0 -- -- 74
2019-10-13 22:00:00 22.3 15 Sudeste 25 Sudeste 0 -- -- 66
2019-10-13 21:00:00 23.2 11 Sudeste 20 Sudeste 0 -- -- 63
2019-10-13 20:00:00 24.2 7 Sur 24 Sudeste 0 -- -- 60
2019-10-13 19:00:00 26 14 Sudeste 31 Sur 0 -- -- 53
2019-10-13 18:00:00 26.9 17 Sudeste 35 Sudeste 0 -- -- 48
2019-10-13 17:00:00 27 22 Sudeste 39 Sudeste 0 -- -- 49
2019-10-13 16:00:00 26.3 21 Sudeste 40 Sudeste 0 -- -- 50
2019-10-13 15:00:00 25.2 15 Sudeste 38 Sudeste 0 -- -- 54
2019-10-13 14:00:00 24.9 13 Sudeste 35 Sur 0 -- -- 57
2019-10-13 13:00:00 22.9 22 Sudeste 37 Sudeste 0 -- -- 64
2019-10-13 12:00:00 21.2 18 Sudeste 36 Sur 0 -- -- 75
2019-10-13 11:00:00 19.5 12 Sudeste 35 Sudeste 0 -- -- 83
2019-10-13 10:00:00 18.3 20 Sudeste 33 Sudeste 0 -- -- 86
2019-10-13 09:00:00 17.4 10 Sudeste 27 Sudeste 0 -- -- 90
2019-10-13 08:00:00 17.6 21 Sudeste 35 Sudeste 0 -- -- 89
2019-10-13 07:00:00 17.7 19 Sudeste 44 Sudeste 0 -- -- 88
2019-10-13 06:00:00 17.6 22 Sur 40 Sudeste 0 -- -- 87
2019-10-13 05:00:00 18.1 21 Sudeste 31 Sur 0 -- -- 85
2019-10-13 04:00:00 18.5 12 Sudeste 27 Sudeste 0 -- -- 84
2019-10-13 03:00:00 18.9 17 Sudeste 35 Sudeste 0 -- -- 81
2019-10-13 02:00:00 19.3 11 Sudeste 33 Sudeste 0 -- -- 81
2019-10-13 01:00:00 20.1 17 Sudeste 36 Sur 0 -- -- 78
2019-10-13 00:00:00 21.1 17 Sudeste 31 Sudeste 0 -- -- 75
2019-10-12 23:00:00 21.8 12 Sur 32 Sudeste 0 -- -- 71
2019-10-12 22:00:00 22.3 15 Sudeste 28 Sudeste 0 -- -- 68
2019-10-12 21:00:00 23.4 13 Sudeste 27 Sudeste 0 -- -- 63
2019-10-12 20:00:00 24.2 13 Sudeste 33 Sur 0 -- -- 60
2019-10-12 19:00:00 26.4 20 Sudeste 36 Sudeste 0 -- -- 49
2019-10-12 18:00:00 27 17 Sur 36 Sudeste 0 -- -- 45
2019-10-12 17:00:00 26.6 19 Sudeste 35 Sur 0 -- -- 49
2019-10-12 16:00:00 26.1 19 Sudeste 35 Sur 0 -- -- 54
2019-10-12 15:00:00 25.1 23 Sudeste 38 Sudeste 0 -- -- 57
2019-10-12 14:00:00 23.1 14 Sudeste 44 Sudeste 0 -- -- 67
2019-10-12 13:00:00 22.9 21 Sudeste 43 Sudeste 0 -- -- 67
2019-10-12 12:00:00 21.2 22 Sudeste 35 Sur 0 -- -- 74
2019-10-12 11:00:00 20.2 17 Sudeste 33 Sur 0 -- -- 79
2019-10-12 10:00:00 18.7 12 Sudeste 21 Sur 0 -- -- 85
2019-10-12 09:00:00 17.9 8 Sur 22 Sudeste 0 -- -- 88
2019-10-12 08:00:00 17.9 12 Sudeste 22 Sudeste 0 -- -- 88
2019-10-12 07:00:00 18.1 6 Sur 20 Sur 0 -- -- 88
2019-10-12 06:00:00 18.3 8 Sudeste 16 Sudeste 0 -- -- 87
2019-10-12 05:00:00 18.6 13 Sudeste 22 Sur 0 -- -- 87
2019-10-12 04:00:00 19 13 Sudeste 23 Sudeste 0 -- -- 85
2019-10-12 03:00:00 19.4 12 Sudeste 22 Sudeste 0 -- -- 83
2019-10-12 02:00:00 19.6 13 Sudeste 21 Sudeste 0 -- -- 83
2019-10-12 01:00:00 19.9 4 Sudeste 14 Sudeste 0 -- -- 81
2019-10-12 00:00:00 20.8 6 Sudeste 15 Sudeste 0 -- -- 73
2019-10-11 23:00:00 20.7 6 Sur 15 Sudeste 0 -- -- 69
2019-10-11 22:00:00 21.5 7 Sudeste 15 Sudeste 0 -- -- 66
2019-10-11 21:00:00 22.4 6 Sudeste 23 Sudeste 0 -- -- 63
2019-10-11 20:00:00 23.6 14 Sudeste 22 Sudeste 0 -- -- 58
2019-10-11 19:00:00 24.3 12 Sudeste 26 Sudeste 0 -- -- 56
2019-10-11 18:00:00 25.2 18 Sudeste 29 Sudeste 0 -- -- 55
2019-10-11 17:00:00 25.5 15 Sudeste 29 Sudeste 0 -- -- 53
2019-10-11 16:00:00 24.6 14 Sudeste 28 Sudeste 0 -- -- 55
2019-10-11 15:00:00 23.2 15 Sudeste 30 Sudeste 0 -- -- 60
2019-10-11 14:00:00 21.6 18 Sudeste 31 Sudeste 0 -- -- 64
2019-10-11 13:00:00 20.3 17 Sur 30 Sudeste 0 -- -- 71
2019-10-11 12:00:00 18.2 15 Sudeste 36 Sudeste 0 -- -- 78
2019-10-11 11:00:00 16.6 14 Sudeste 24 Sur 0 -- -- 84
2019-10-11 10:00:00 14.5 5 Sur 12 Sur 0 -- -- 83
2019-10-11 09:00:00 13.2 5 Sur 8 Sur 0 -- -- 80
2019-10-11 08:00:00 12.6 6 Sudeste 10 Sudeste 0 -- -- 75
2019-10-11 07:00:00 12.2 3 Sur 6 Sudeste 0 -- -- 75
2019-10-11 06:00:00 10.9 0 Calma 3 Sur 0 -- -- 78
2019-10-11 05:00:00 11.1 0 Calma 2 Sudoeste 0 -- -- 76
2019-10-11 04:00:00 11.5 0 Calma 0 Calma 0 -- -- 72
2019-10-11 03:00:00 11.9 0 Calma 6 Oeste 0 -- -- 70
2019-10-11 02:00:00 12.6 2 Sudoeste 4 Sudoeste 0 -- -- 69
2019-10-11 01:00:00 13.7 0 Calma 5 Nordeste 0 -- -- 67
2019-10-11 00:00:00 14.3 0 Calma 4 Noroeste 0 -- -- 64
2019-10-10 23:00:00 15 0 Calma 6 Sudoeste 0 -- -- 61
2019-10-10 22:00:00 16.2 0 Calma 7 Oeste 0 -- -- 58
2019-10-10 21:00:00 17.5 3 Sudoeste 7 Sur 0 -- -- 54
2019-10-10 20:00:00 19.2 4 Sur 9 Sudoeste 0 -- -- 51
2019-10-10 19:00:00 21.2 3 Sur 8 Sur 0 -- -- 44
2019-10-10 18:00:00 22.6 3 Sudoeste 10 Nordeste 0 -- -- 40
2019-10-10 17:00:00 22.4 5 Nordeste 12 Nordeste 0 -- -- 40
2019-10-10 16:00:00 22.2 6 Norte 15 Nordeste 0 -- -- 39
2019-10-10 15:00:00 21.4 7 Nordeste 15 Norte 0 -- -- 41
2019-10-10 14:00:00 20.7 5 Noroeste 15 Norte 0 -- -- 43
2019-10-10 13:00:00 19 7 Norte 19 Norte 0 -- -- 49
2019-10-10 12:00:00 17.6 8 Noroeste 17 Noroeste 0 -- -- 52
2019-10-10 11:00:00 16 5 Norte 12 Noroeste 0 -- -- 58
2019-10-10 10:00:00 13.7 4 Noroeste 8 Noroeste 0 -- -- 64
2019-10-10 09:00:00 10.7 2 Norte 13 Noroeste 0 -- -- 75
2019-10-10 08:00:00 10.5 6 Oeste 18 Oeste 0 -- -- 74
2019-10-10 07:00:00 10.8 8 Oeste 19 Noroeste 0 -- -- 74
2019-10-10 06:00:00 11.1 9 Oeste 18 Oeste 0 -- -- 75
2019-10-10 05:00:00 11.6 7 Noroeste 15 Noroeste 0 -- -- 71
2019-10-10 04:00:00 11 3 Oeste 9 Oeste 0 -- -- 73
2019-10-10 03:00:00 12.3 3 Noroeste 11 Noroeste 0 -- -- 71
2019-10-10 02:00:00 13.1 4 Noroeste 13 Noroeste 0 -- -- 68
2019-10-10 01:00:00 13.8 6 Noroeste 16 Noroeste 0 -- -- 66
2019-10-10 00:00:00 14.5 6 Noroeste 24 Oeste 0 -- -- 64
2019-10-09 23:00:00 14.9 8 Norte 23 Norte 0 -- -- 64
2019-10-09 22:00:00 15.9 10 Norte 37 Norte 0 -- -- 60
2019-10-09 21:00:00 17 17 Norte 37 Noroeste 0 -- -- 57
2019-10-09 20:00:00 17.7 17 Norte 32 Norte 0 -- -- 53
2019-10-09 19:00:00 19 15 Norte 37 Norte 0 -- -- 49
2019-10-09 18:00:00 20.2 15 Norte 34 Norte 0 -- -- 49
2019-10-09 17:00:00 21.2 10 Norte 31 Noroeste 0 -- -- 47
2019-10-09 16:00:00 21.7 14 Norte 28 Norte 0 -- -- 49
2019-10-09 15:00:00 21.1 15 Norte 35 Norte 0 -- -- 51
2019-10-09 14:00:00 20.3 12 Norte 29 Noroeste 0 -- -- 57
2019-10-09 13:00:00 20 13 Norte 32 Oeste 0 -- -- 60
2019-10-09 12:00:00 19.8 9 Noroeste 32 Oeste 0 -- -- 64
2019-10-09 11:00:00 17.7 8 Noroeste 29 Norte 0 -- -- 72
2019-10-09 10:00:00 17.6 8 Noroeste 24 Noroeste 0 -- -- 73
2019-10-09 09:00:00 16.3 7 Noroeste 24 Noroeste 0 -- -- 76
2019-10-09 08:00:00 15.9 8 Noroeste 28 Norte 0 -- -- 78
2019-10-09 07:00:00 15.7 6 Noroeste 23 Noroeste 0 -- -- 80
2019-10-09 06:00:00 15.8 5 Noroeste 10 Oeste 0 -- -- 81
2019-10-09 05:00:00 16.6 4 Noroeste 18 Noroeste 0 -- -- 79
2019-10-09 04:00:00 17.2 6 Oeste 21 Oeste 0 -- -- 77
2019-10-09 03:00:00 17.6 7 Noroeste 22 Noroeste 0 -- -- 78
2019-10-09 02:00:00 18.1 6 Oeste 15 Oeste 0 -- -- 79
2019-10-09 01:00:00 18.8 6 Oeste 17 Oeste 0 -- -- 75
2019-10-09 00:00:00 19.6 7 Noroeste 21 Oeste 0 -- -- 70
2019-10-08 23:00:00 20.6 9 Noroeste 26 Noroeste 0 -- -- 64
2019-10-08 22:00:00 21.4 8 Noroeste 21 Norte 0 -- -- 53
2019-10-08 21:00:00 22.4 3 Noroeste 6 Oeste 0 -- -- 39
2019-10-08 20:00:00 23.7 0 Calma 3 Noroeste 0 -- -- 40
2019-10-08 19:00:00 26.6 0 Calma 9 Sur 0 -- -- 37
2019-10-08 18:00:00 28.1 5 Sur 13 Sur 0 -- -- 29
2019-10-08 17:00:00 27.6 9 Sudeste 20 Sudeste 0 -- -- 27
2019-10-08 16:00:00 26.5 13 Sudeste 21 Sudeste 0 -- -- 26
2019-10-08 15:00:00 25.9 10 Sudeste 18 Sudeste 0 -- -- 22
2019-10-08 14:00:00 24.1 7 Sudeste 16 Sudeste 0 -- -- 27
2019-10-08 13:00:00 22.4 7 Sudeste 13 Este 0 -- -- 27
2019-10-08 12:00:00 20.6 3 Nordeste 8 Este 0 -- -- 36
2019-10-08 11:00:00 19.2 3 Sudeste 8 Oeste 0 -- -- 37
2019-10-08 10:00:00 15.9 0 Calma 4 Noroeste 0 -- -- 52
2019-10-08 09:00:00 12.4 0 Calma 5 Sur 0 -- -- 59
2019-10-08 08:00:00 12.8 0 Calma 6 Sudeste 0 -- -- 59
2019-10-08 07:00:00 14.4 3 Norte 8 Este 0 -- -- 52
2019-10-08 06:00:00 15.1 3 Noroeste 13 Noroeste 0 -- -- 47
2019-10-08 05:00:00 16.2 7 Norte 11 Norte 0 -- -- 44
2019-10-08 04:00:00 16.2 3 Oeste 9 Noroeste 0 -- -- 41
2019-10-08 03:00:00 15.6 5 Sudoeste 12 Sudoeste 0 -- -- 44
2019-10-08 02:00:00 16.6 4 Oeste 18 Sudoeste 0 -- -- 44
2019-10-08 01:00:00 17.3 4 Oeste 13 Oeste 0 -- -- 42
2019-10-08 00:00:00 17.6 5 Oeste 14 Oeste 0 -- -- 43
2019-10-07 23:00:00 18.2 7 Oeste 15 Oeste 0 -- -- 41
2019-10-07 22:00:00 19.2 6 Noroeste 19 Norte 0 -- -- 40
2019-10-07 21:00:00 20.3 10 Norte 25 Norte 0 -- -- 39
2019-10-07 20:00:00 22 15 Norte 31 Norte 0 -- -- 34
2019-10-07 19:00:00 23.1 13 Norte 30 Norte 0 -- -- 38
2019-10-07 18:00:00 25.2 15 Norte 33 Norte 0 -- -- 33
2019-10-07 17:00:00 25.7 15 Noroeste 41 Noroeste 0 -- -- 29
2019-10-07 16:00:00 25 15 Noroeste 37 Noroeste 0 -- -- 30
2019-10-07 15:00:00 23.8 13 Norte 36 Noroeste 0 -- -- 33
2019-10-07 14:00:00 22.7 14 Noroeste 33 Norte 0 -- -- 33
2019-10-07 13:00:00 21.4 13 Norte 31 Norte 0 -- -- 40
2019-10-07 12:00:00 19.4 13 Norte 28 Norte 0 -- -- 46
2019-10-07 11:00:00 18 11 Norte 27 Noroeste 0 -- -- 55
2019-10-07 10:00:00 15.9 8 Noroeste 27 Norte 0 -- -- 68
2019-10-07 09:00:00 13.6 10 Norte 30 Norte 0 -- -- 76
2019-10-07 08:00:00 13.2 11 Noroeste 23 Noroeste 0 -- -- 76
2019-10-07 07:00:00 13.5 6 Noroeste 19 Noroeste 0 -- -- 75
2019-10-07 06:00:00 13.7 8 Noroeste 18 Noroeste 0 -- -- 73
2019-10-07 05:00:00 14.1 5 Noroeste 22 Norte 0 -- -- 72
2019-10-07 04:00:00 14.7 4 Noroeste 17 Noroeste 0 -- -- 71
2019-10-07 03:00:00 15.2 6 Noroeste 23 Norte 0 -- -- 69
2019-10-07 02:00:00 15.8 12 Norte 30 Norte 0 -- -- 67
2019-10-07 01:00:00 16.5 8 Noroeste 23 Noroeste 0 -- -- 64
2019-10-07 00:00:00 17.2 8 Noroeste 25 Noroeste 0 -- -- 65
2019-10-06 23:00:00 17 9 Norte 21 Noroeste 0 -- -- 69
2019-10-06 22:00:00 17.1 8 Noroeste 28 Norte 0 -- -- 70
2019-10-06 21:00:00 17.4 14 Norte 30 Norte 0 -- -- 68
2019-10-06 20:00:00 18.7 14 Norte 32 Norte 0 -- -- 64
2019-10-06 19:00:00 20.3 17 Norte 39 Norte 0 -- -- 58
2019-10-06 18:00:00 21.6 16 Norte 36 Norte 0 -- -- 57
2019-10-06 17:00:00 22.9 13 Norte 33 Norte 0 -- -- 52
2019-10-06 16:00:00 22.4 17 Norte 34 Norte 0 -- -- 55
2019-10-06 15:00:00 22.5 17 Norte 35 Norte 0 -- -- 55
2019-10-06 14:00:00 21.2 12 Noroeste 27 Norte 0 -- -- 58
2019-10-06 13:00:00 20.9 9 Norte 30 Norte 0 -- -- 56
2019-10-06 12:00:00 20.4 10 Noroeste 26 Oeste 0 -- -- 57
2019-10-06 11:00:00 17.9 8 Noroeste 18 Noroeste 0 -- -- 64
2019-10-06 10:00:00 16.2 6 Noroeste 18 Noroeste 0 -- -- 72
2019-10-06 09:00:00 14.3 6 Noroeste 14 Noroeste 0 -- -- 80
2019-10-06 08:00:00 14.3 5 Noroeste 17 Noroeste 0 -- -- 79
2019-10-06 07:00:00 14.6 5 Noroeste 18 Norte 0 -- -- 75
2019-10-06 06:00:00 14.5 4 Noroeste 13 Noroeste 0 -- -- 78
2019-10-06 05:00:00 14.9 8 Norte 21 Noroeste 0 -- -- 76
2019-10-06 04:00:00 14.6 4 Oeste 15 Norte 0 -- -- 76
2019-10-06 03:00:00 15.3 5 Oeste 12 Noroeste 0 -- -- 74
2019-10-06 02:00:00 15.5 4 Oeste 16 Noroeste 0 -- -- 73
2019-10-06 01:00:00 16 6 Oeste 19 Norte 0 -- -- 71
2019-10-06 00:00:00 16.9 12 Norte 27 Norte 0 -- -- 69
2019-10-05 23:00:00 18 8 Noroeste 24 Norte 0 -- -- 65
2019-10-05 22:00:00 19.5 5 Noroeste 17 Oeste 0 -- -- 60
2019-10-05 21:00:00 21 8 Oeste 19 Oeste 0 -- -- 55
2019-10-05 20:00:00 22.7 4 Noroeste 16 Norte 0 -- -- 51
2019-10-05 19:00:00 24.7 10 Norte 23 Noroeste 0 -- -- 47
2019-10-05 18:00:00 26 13 Norte 24 Norte 0 -- -- 41
2019-10-05 17:00:00 26.4 9 Norte 24 Norte 0 -- -- 40
2019-10-05 16:00:00 26 9 Norte 22 Norte 0 -- -- 40
2019-10-05 15:00:00 24.6 12 Norte 21 Noroeste 0 -- -- 42
2019-10-05 14:00:00 23.1 9 Noroeste 20 Noroeste 0 -- -- 49
2019-10-05 13:00:00 21.5 7 Noroeste 22 Norte 0 -- -- 53
2019-10-05 12:00:00 20.4 9 Noroeste 26 Noroeste 0 -- -- 58
2019-10-05 11:00:00 18.6 12 Norte 24 Norte 0 -- -- 64
2019-10-05 10:00:00 17.2 9 Noroeste 20 Oeste 0 -- -- 70
2019-10-05 09:00:00 15.5 5 Noroeste 13 Oeste 0 -- -- 78
2019-10-05 08:00:00 15.6 5 Noroeste 19 Norte 0 -- -- 78
2019-10-05 07:00:00 16.3 6 Noroeste 15 Norte 0 -- -- 76
2019-10-05 06:00:00 16.1 5 Noroeste 16 Noroeste 0 -- -- 77
2019-10-05 05:00:00 16.1 6 Norte 21 Norte 0 -- -- 77
2019-10-05 04:00:00 16.7 9 Norte 24 Norte 0 -- -- 74
2019-10-05 03:00:00 17.1 9 Norte 24 Oeste 0 -- -- 73
2019-10-05 02:00:00 17.2 9 Noroeste 26 Noroeste 0 -- -- 72
2019-10-05 01:00:00 17.1 9 Norte 24 Norte 0 -- -- 72
2019-10-05 00:00:00 16.9 8 Noroeste 20 Noroeste 0 -- -- 74
2019-10-04 23:00:00 17.5 7 Noroeste 20 Noroeste 0 -- -- 71
2019-10-04 22:00:00 18.6 9 Noroeste 22 Oeste 0 -- -- 67
2019-10-04 21:00:00 20 4 Noroeste 24 Norte 0 -- -- 64
2019-10-04 20:00:00 21.8 13 Norte 26 Norte 0 -- -- 59
2019-10-04 19:00:00 24.1 11 Norte 23 Norte 0 -- -- 53
2019-10-04 18:00:00 25.6 8 Norte 22 Norte 0 -- -- 48
2019-10-04 17:00:00 25.5 8 Norte 21 Norte 0 -- -- 49
2019-10-04 16:00:00 25.5 9 Nordeste 25 Norte 0 -- -- 50
2019-10-04 15:00:00 25.5 9 Norte 22 Noroeste 0 -- -- 46
2019-10-04 14:00:00 24.5 10 Norte 25 Norte 0 -- -- 50
2019-10-04 13:00:00 22.7 10 Norte 19 Noroeste 0 -- -- 57
2019-10-04 12:00:00 22.3 6 Noroeste 18 Noroeste 0 -- -- 58
2019-10-04 11:00:00 19.7 4 Nordeste 8 Norte 0 -- -- 64
2019-10-04 10:00:00 16.4 3 Sudeste 5 Sur 0 -- -- 68
2019-10-04 09:00:00 12.7 3 Sur 8 Nordeste 0 -- -- 80
2019-10-04 08:00:00 13 3 Nordeste 6 Nordeste 0 -- -- 77
2019-10-04 07:00:00 13.6 3 Noroeste 8 Noroeste 0 -- -- 74
2019-10-04 06:00:00 13.4 3 Noroeste 7 Norte 0 -- -- 73
2019-10-04 05:00:00 13.5 0 Calma 5 Sudeste 0 -- -- 70
2019-10-04 04:00:00 13.9 0 Calma 4 Nordeste 0 -- -- 67
2019-10-04 03:00:00 14.5 2 Noroeste 10 Oeste 0 -- -- 64
2019-10-04 02:00:00 15.3 5 Oeste 13 Noroeste 0 -- -- 60
2019-10-04 01:00:00 16.5 6 Noroeste 13 Norte 0 -- -- 53
2019-10-04 00:00:00 17.5 4 Noroeste 15 Norte 0 -- -- 54
2019-10-03 23:00:00 18.1 8 Norte 20 Norte 0 -- -- 53
2019-10-03 22:00:00 18.9 8 Norte 21 Norte 0 -- -- 51
2019-10-03 21:00:00 20.2 9 Norte 26 Norte 0 -- -- 48
2019-10-03 20:00:00 21.9 11 Norte 28 Norte 0 -- -- 39
2019-10-03 19:00:00 23.9 13 Norte 36 Norte 0 -- -- 39
2019-10-03 18:00:00 25.6 14 Norte 32 Norte 0 -- -- 35
2019-10-03 17:00:00 26 16 Norte 29 Norte 0 -- -- 33
2019-10-03 16:00:00 25.2 11 Norte 28 Noroeste 0 -- -- 39
2019-10-03 15:00:00 24.3 12 Noroeste 33 Noroeste 0 -- -- 41
2019-10-03 14:00:00 22.7 9 Noroeste 26 Noroeste 0 -- -- 44
2019-10-03 13:00:00 19.9 9 Noroeste 22 Noroeste 0 -- -- 54
2019-10-03 12:00:00 17.8 8 Noroeste 24 Noroeste 0 -- -- 60
2019-10-03 11:00:00 16 9 Noroeste 21 Noroeste 0 -- -- 67
2019-10-03 10:00:00 12.6 6 Oeste 18 Noroeste 0 -- -- 80
2019-10-03 09:00:00 12.1 7 Noroeste 18 Noroeste 0 -- -- 82
2019-10-03 08:00:00 12 7 Noroeste 18 Noroeste 0 -- -- 82
2019-10-03 07:00:00 13.3 9 Noroeste 21 Noroeste 0 -- -- 76
2019-10-03 06:00:00 13.9 8 Noroeste 20 Noroeste 0 -- -- 74
2019-10-03 05:00:00 14.1 10 Noroeste 27 Noroeste 0 -- -- 74
2019-10-03 04:00:00 14.1 13 Noroeste 29 Noroeste 0 -- -- 76
2019-10-03 03:00:00 14.4 13 Noroeste 26 Noroeste 0 -- -- 76
2019-10-03 02:00:00 14.5 5 Noroeste 22 Noroeste 0 -- -- 77
2019-10-03 01:00:00 15 10 Noroeste 24 Noroeste 0 -- -- 76
2019-10-03 00:00:00 15 8 Noroeste 19 Noroeste 0 -- -- 77
2019-10-02 23:00:00 15.5 6 Norte 20 Noroeste 0 -- -- 76
2019-10-02 22:00:00 16 9 Norte 23 Norte 0 -- -- 76
2019-10-02 21:00:00 16.4 10 Norte 33 Norte 0 -- -- 73
2019-10-02 20:00:00 18.6 10 Norte 36 Noroeste 0 -- -- 62
2019-10-02 19:00:00 19.8 15 Norte 38 Noroeste 0 -- -- 56
2019-10-02 18:00:00 20.8 16 Norte 40 Norte 0 -- -- 53
2019-10-02 17:00:00 20.7 17 Norte 35 Norte 0 -- -- 50
2019-10-02 16:00:00 20.8 16 Norte 36 Norte 0 -- -- 52
2019-10-02 15:00:00 20.3 13 Norte 40 Noroeste 0 -- -- 53
2019-10-02 14:00:00 21.2 14 Norte 44 Noroeste 0 -- -- 51
2019-10-02 13:00:00 20.7 18 Norte 41 Norte 0 -- -- 53
2019-10-02 12:00:00 19.8 15 Norte 37 Norte 0 -- -- 53
2019-10-02 11:00:00 19.2 14 Norte 33 Noroeste 0 -- -- 54
2019-10-02 10:00:00 18.1 10 Norte 29 Norte 0 -- -- 58
2019-10-02 09:00:00 16.4 7 Noroeste 20 Noroeste 0 -- -- 64
2019-10-02 08:00:00 15.5 7 Noroeste 24 Noroeste 0 -- -- 71
2019-10-02 07:00:00 15.5 9 Norte 31 Noroeste 0 -- -- 73
2019-10-02 06:00:00 15.8 8 Norte 17 Noroeste 0 -- -- 73
2019-10-02 05:00:00 16.5 9 Norte 25 Norte 0 -- -- 70
2019-10-02 04:00:00 17.3 10 Norte 21 Norte 0 -- -- 73
2019-10-02 03:00:00 17.4 5 Norte 18 Noroeste 0 -- -- 74
2019-10-02 02:00:00 17.4 4 Noroeste 17 Oeste 0 -- -- 75
2019-10-02 01:00:00 17.9 10 Norte 21 Nordeste 0 -- -- 72
2019-10-02 00:00:00 18.4 9 Norte 21 Noroeste 0 -- -- 70
2019-10-01 23:00:00 18.6 10 Norte 23 Noroeste 0 -- -- 69
2019-10-01 22:00:00 19.4 8 Noroeste 19 Noroeste 0 -- -- 67
2019-10-01 21:00:00 20.7 9 Noroeste 25 Norte 0 -- -- 62
2019-10-01 20:00:00 23 8 Norte 25 Norte 0 -- -- 55
2019-10-01 19:00:00 24.8 12 Norte 24 Norte 0 -- -- 49
2019-10-01 18:00:00 26.1 10 Norte 26 Norte 0 -- -- 47
2019-10-01 17:00:00 26.8 16 Norte 30 Norte 0 -- -- 47
2019-10-01 16:00:00 27.8 10 Norte 22 Nordeste 0 -- -- 45
2019-10-01 15:00:00 26.2 10 Norte 24 Norte 0 -- -- 47
2019-10-01 14:00:00 25.7 11 Norte 24 Norte 0 -- -- 51
2019-10-01 13:00:00 24.3 9 Noroeste 25 Noroeste 0 -- -- 51
2019-10-01 12:00:00 22.2 5 Nordeste 9 Nordeste 0 -- -- 65
2019-10-01 11:00:00 19.6 3 Nordeste 8 Nordeste 0 -- -- 70
2019-10-01 10:00:00 17.2 0 Calma 6 Noroeste 0 -- -- 71
2019-10-01 09:00:00 14.4 2 Noroeste 6 Nordeste 0 -- -- 80
2019-10-01 08:00:00 14.1 3 Nordeste 7 Oeste 0 -- -- 80
2019-10-01 07:00:00 14 3 Oeste 4 Oeste 0 -- -- 74
2019-10-01 06:00:00 14.7 0 Calma 3 Sur 0 -- -- 79
2019-10-01 05:00:00 15.2 0 Calma 5 Sudoeste 0 -- -- 76
2019-10-01 04:00:00 16 0 Calma 4 Noroeste 0 -- -- 75
2019-10-01 03:00:00 16.7 0 Calma 6 Oeste 0 -- -- 72
2019-10-01 02:00:00 17.3 0 Calma 6 Oeste 0 -- -- 69
2019-10-01 01:00:00 18.2 0 Calma 3 Sudoeste 0 -- -- 68
2019-10-01 00:00:00 19.3 2 Sudoeste 11 Oeste 0 -- -- 64
2019-09-30 23:00:00 20.3 0 Calma 11 Oeste 0 -- -- 62
2019-09-30 22:00:00 21.4 3 Sudoeste 6 Sudoeste 0 -- -- 57
2019-09-30 21:00:00 23.2 2 Noroeste 4 Noroeste 0 -- -- 53
2019-09-30 20:00:00 25.4 2 Oeste 6 Sur 0 -- -- 49
2019-09-30 19:00:00 27.7 4 Sudoeste 9 Sur 0 -- -- 44
2019-09-30 18:00:00 28.9 5 Sur 12 Sudeste 0 -- -- 41
2019-09-30 17:00:00 29.2 4 Sur 11 Este 0 -- -- 41
2019-09-30 16:00:00 28 4 Nordeste 13 Norte 0 -- -- 45
2019-09-30 15:00:00 26.7 4 Este 9 Este 0 -- -- 47
2019-09-30 14:00:00 25.2 5 Nordeste 12 Este 0 -- -- 50
2019-09-30 13:00:00 23.4 5 Nordeste 15 Nordeste 0 -- -- 57
2019-09-30 12:00:00 22 8 Nordeste 13 Norte 0 -- -- 60
2019-09-30 11:00:00 20.6 6 Norte 13 Norte 0 -- -- 60
2019-09-30 10:00:00 17.8 3 Noroeste 7 Norte 0 -- -- 60
2019-09-30 09:00:00 14.6 3 Oeste 5 Sudoeste 0 -- -- 68
2019-09-30 08:00:00 14.4 0 Calma 4 Este 0 -- -- 73
2019-09-30 07:00:00 14.8 3 Norte 6 Oeste 0 -- -- 67
2019-09-30 06:00:00 16 2 Noroeste 8 Noroeste 0 -- -- 68
2019-09-30 05:00:00 16.9 4 Noroeste 8 Oeste 0 -- -- 66
2019-09-30 04:00:00 17.8 3 Oeste 11 Oeste 0 -- -- 64
2019-09-30 03:00:00 18.5 4 Noroeste 10 Oeste 0 -- -- 63
2019-09-30 02:00:00 19 4 Oeste 15 Noroeste 0 -- -- 60
2019-09-30 01:00:00 19.9 7 Noroeste 22 Noroeste 0 -- -- 54
2019-09-30 00:00:00 20.8 6 Noroeste 18 Oeste 0 -- -- 49
2019-09-29 23:00:00 21.8 6 Noroeste 18 Oeste 0 -- -- 50
2019-09-29 22:00:00 22.2 10 Oeste 16 Oeste 0 -- -- 54
2019-09-29 21:00:00 23.3 2 Oeste 5 Norte 0 -- -- 52
2019-09-29 20:00:00 25.4 3 Noroeste 4 Noroeste 0 -- -- 47
2019-09-29 19:00:00 28.3 0 Calma 6 Sudeste 0 -- -- 36
2019-09-29 18:00:00 29.3 2 Sur 7 Sur 0 -- -- 37
2019-09-29 17:00:00 28.6 4 Norte 16 Norte 0 -- -- 43
2019-09-29 16:00:00 27.5 9 Norte 18 Norte 0 -- -- 51
2019-09-29 15:00:00 26.6 6 Nordeste 16 Nordeste 0 -- -- 51
2019-09-29 14:00:00 24.7 3 Noroeste 12 Sudeste 0 -- -- 59
2019-09-29 13:00:00 22.7 7 Sudeste 15 Sur 0 -- -- 64
2019-09-29 12:00:00 20.6 7 Sudeste 17 Sudeste 0 -- -- 77
2019-09-29 11:00:00 18.6 6 Este 15 Sudeste 0 -- -- 82
2019-09-29 10:00:00 16.3 3 Nordeste 6 Norte 0 -- -- 80
2019-09-29 09:00:00 15.3 0 Calma 5 Norte 0 -- -- 78
2019-09-29 08:00:00 14.4 0 Calma 9 Norte 0 -- -- 79
2019-09-29 07:00:00 14.4 2 Oeste 4 Noroeste 0 -- -- 81
2019-09-29 06:00:00 14.2 2 Oeste 9 Norte 0 -- -- 81
2019-09-29 05:00:00 14.4 4 Noroeste 11 Norte 0 -- -- 79
2019-09-29 04:00:00 15.2 0 Calma 8 Oeste 0 -- -- 77
2019-09-29 03:00:00 15.9 3 Oeste 6 Oeste 0 -- -- 75
2019-09-29 02:00:00 16.6 2 Sudoeste 5 Sudoeste 0 -- -- 73
2019-09-29 01:00:00 17.5 2 Oeste 4 Sudoeste 0 -- -- 70
2019-09-29 00:00:00 18.5 0 Calma 4 Sudoeste 0 -- -- 66
2019-09-28 23:00:00 19.5 2 Norte 4 Norte 0 -- -- 66
2019-09-28 22:00:00 20.6 0 Calma 2 Nordeste 0 -- -- 63
2019-09-28 21:00:00 22.2 0 Calma 5 Sudeste 0 -- -- 57
2019-09-28 20:00:00 24.4 3 Sudeste 10 Sur 0 -- -- 50
2019-09-28 19:00:00 26 8 Sudeste 20 Sudeste 0 -- -- 41
2019-09-28 18:00:00 26.3 14 Sudeste 24 Sudeste 0 -- -- 38
2019-09-28 17:00:00 25.9 13 Sudeste 22 Sudeste 0 -- -- 40
2019-09-28 16:00:00 25.2 12 Sudeste 21 Sudeste 0 -- -- 49
2019-09-28 15:00:00 24.3 10 Sudeste 18 Sudeste 0 -- -- 51
2019-09-28 14:00:00 23.2 9 Sudeste 16 Sudeste 0 -- -- 55
2019-09-28 13:00:00 22.1 4 Este 13 Este 0 -- -- 58
2019-09-28 12:00:00 21.2 4 Nordeste 11 Nordeste 0 -- -- 63
2019-09-28 11:00:00 19.8 5 Norte 13 Oeste 0 -- -- 66
2019-09-28 10:00:00 17.7 5 Noroeste 12 Noroeste 0 -- -- 73
2019-09-28 09:00:00 14.3 7 Oeste 11 Oeste 0 -- -- 82
2019-09-28 08:00:00 13.8 6 Oeste 14 Oeste 0 -- -- 83
2019-09-28 07:00:00 14.1 8 Oeste 13 Oeste 0 -- -- 84
2019-09-28 06:00:00 14.9 5 Oeste 13 Oeste 0 -- -- 82
2019-09-28 05:00:00 16.2 6 Oeste 19 Oeste 0 -- -- 81
2019-09-28 04:00:00 16.6 7 Oeste 17 Oeste 0 -- -- 79
2019-09-28 03:00:00 17.2 9 Noroeste 22 Oeste 0 -- -- 77
2019-09-28 02:00:00 17.6 10 Oeste 19 Oeste 0 -- -- 76
2019-09-28 01:00:00 18.2 10 Oeste 26 Norte 0 -- -- 74
2019-09-28 00:00:00 19.3 7 Noroeste 19 Noroeste 0 -- -- 70
2019-09-27 23:00:00 20.6 6 Noroeste 22 Noroeste 0 -- -- 64
2019-09-27 22:00:00 21.6 5 Noroeste 13 Noroeste 0 -- -- 60
2019-09-27 21:00:00 22.6 4 Oeste 8 Noroeste 0 -- -- 40
2019-09-27 20:00:00 25.2 3 Oeste 10 Norte 0 -- -- 37
2019-09-27 19:00:00 27.3 6 Norte 18 Noroeste 0 -- -- 33
2019-09-27 18:00:00 28.1 3 Noroeste 12 Norte 0 -- -- 31
2019-09-27 17:00:00 27.9 5 Nordeste 15 Norte 0 -- -- 32
2019-09-27 16:00:00 27.3 9 Nordeste 19 Norte 0 -- -- 35
2019-09-27 15:00:00 26.5 10 Norte 21 Nordeste 0 -- -- 36
2019-09-27 14:00:00 25.3 12 Nordeste 21 Norte 0 -- -- 44
2019-09-27 13:00:00 23.5 8 Norte 20 Norte 0 -- -- 53
2019-09-27 12:00:00 21.9 9 Norte 20 Norte 0 -- -- 57
2019-09-27 11:00:00 20 6 Norte 11 Norte 0 -- -- 62
2019-09-27 10:00:00 18 3 Noroeste 13 Norte 0 -- -- 66
2019-09-27 09:00:00 15.5 4 Norte 15 Norte 0 -- -- 75
2019-09-27 08:00:00 15.1 4 Norte 16 Noroeste 0 -- -- 77
2019-09-27 07:00:00 14.3 2 Noroeste 4 Noroeste 0 -- -- 81
2019-09-27 06:00:00 14.8 0 Calma 4 Noroeste 0 -- -- 80
2019-09-27 05:00:00 15.6 0 Calma 5 Noroeste 0 -- -- 77
2019-09-27 04:00:00 16.3 0 Calma 9 Oeste 0 -- -- 74
2019-09-27 03:00:00 16.9 2 Noroeste 4 Sudeste 0 -- -- 73
2019-09-27 02:00:00 17.5 0 Calma 6 Oeste 0 -- -- 70
2019-09-27 01:00:00 18.1 0 Calma 4 Oeste 0 -- -- 67
2019-09-27 00:00:00 19.1 0 Calma 6 Oeste 0 -- -- 65
2019-09-26 23:00:00 20.2 3 Oeste 8 Oeste 0 -- -- 61
2019-09-26 22:00:00 21.9 2 Sudoeste 7 Oeste 0 -- -- 57
2019-09-26 21:00:00 23.5 2 Noroeste 5 Norte 0 -- -- 51
2019-09-26 20:00:00 26.2 3 Norte 9 Nordeste 0 -- -- 43
2019-09-26 19:00:00 27.8 0 Calma 9 Sur 0 -- -- 38
2019-09-26 18:00:00 28.1 5 Sudeste 19 Sudeste 0 -- -- 38
2019-09-26 17:00:00 27.7 8 Sudeste 20 Sudeste 0 -- -- 39
2019-09-26 16:00:00 26.7 10 Sudeste 26 Sudeste 0 -- -- 41
2019-09-26 15:00:00 26 12 Sudeste 26 Este 0 -- -- 42
2019-09-26 14:00:00 24.2 8 Sudeste 18 Sudeste 0 -- -- 51
2019-09-26 13:00:00 22.4 7 Este 12 Sudeste 0 -- -- 53
2019-09-26 12:00:00 20.9 4 Norte 8 Nordeste 0 -- -- 60
2019-09-26 11:00:00 18.7 4 Nordeste 8 Norte 0 -- -- 70
2019-09-26 10:00:00 17 2 Este 5 Nordeste 0 -- -- 73
2019-09-26 09:00:00 13.4 0 Calma 4 Nordeste 0 -- -- 82
2019-09-26 08:00:00 12.9 2 Noroeste 5 Sudoeste 0 -- -- 84
2019-09-26 07:00:00 13.2 2 Noroeste 8 Noroeste 0 -- -- 81
2019-09-26 06:00:00 13.6 4 Oeste 12 Noroeste 0 -- -- 79
2019-09-26 05:00:00 14 3 Sudoeste 6 Sudoeste 0 -- -- 80
2019-09-26 04:00:00 14.6 0 Calma 4 Oeste 0 -- -- 77
2019-09-26 03:00:00 14.9 2 Oeste 6 Sudoeste 0 -- -- 76
2019-09-26 02:00:00 15.5 0 Calma 6 Oeste 0 -- -- 74
2019-09-26 01:00:00 16.3 0 Calma 5 Oeste 0 -- -- 72
2019-09-26 00:00:00 17.2 3 Noroeste 10 Oeste 0 -- -- 68
2019-09-25 23:00:00 18.2 3 Oeste 7 Oeste 0 -- -- 64
2019-09-25 22:00:00 19.2 0 Calma 7 Nordeste 0 -- -- 60
2019-09-25 21:00:00 20.4 5 Nordeste 15 Nordeste 0 -- -- 56
2019-09-25 20:00:00 22 6 Norte 22 Norte 0 -- -- 49
2019-09-25 19:00:00 22.9 11 Norte 20 Norte 0 -- -- 46
2019-09-25 18:00:00 23.2 9 Norte 26 Norte 0 -- -- 45
2019-09-25 17:00:00 23.9 10 Norte 23 Noroeste 0 -- -- 42
2019-09-25 16:00:00 23.2 11 Norte 26 Norte 0 -- -- 42
2019-09-25 15:00:00 23.3 10 Norte 26 Nordeste 0 -- -- 43
2019-09-25 14:00:00 22.1 8 Norte 26 Noroeste 0 -- -- 48
2019-09-25 13:00:00 21.1 9 Norte 26 Norte 0 -- -- 51
2019-09-25 12:00:00 20.4 7 Noroeste 21 Oeste 0 -- -- 58
2019-09-25 11:00:00 18.4 6 Norte 17 Noroeste 0 -- -- 68
2019-09-25 10:00:00 18.5 6 Noroeste 15 Noroeste 0 -- -- 66
2019-09-25 09:00:00 16 4 Noroeste 8 Oeste 0 -- -- 78
2019-09-25 08:00:00 15.5 4 Noroeste 11 Oeste 0 -- -- 78
2019-09-25 07:00:00 15.6 6 Oeste 12 Oeste 0 -- -- 77
2019-09-25 06:00:00 15.9 5 Noroeste 21 Noroeste 0 -- -- 76
2019-09-25 05:00:00 16.4 11 Norte 26 Norte 0 -- -- 74
2019-09-25 04:00:00 16.6 9 Noroeste 24 Noroeste 0 -- -- 73
2019-09-25 03:00:00 16.9 8 Noroeste 24 Noroeste 0 -- -- 73
2019-09-25 02:00:00 17.7 7 Noroeste 24 Noroeste 0 -- -- 71
2019-09-25 01:00:00 18 9 Noroeste 22 Noroeste 0 -- -- 68
2019-09-25 00:00:00 19.3 8 Noroeste 21 Norte 0 -- -- 67
2019-09-24 23:00:00 21.3 9 Noroeste 24 Noroeste 0 -- -- 66
2019-09-24 22:00:00 22.5 5 Noroeste 12 Noroeste 0 -- -- 61
2019-09-24 21:00:00 23.8 5 Oeste 19 Sudoeste 0 -- -- 56
2019-09-24 20:00:00 25.2 2 Sudoeste 9 Norte 0 -- -- 54
2019-09-24 19:00:00 26.1 5 Norte 15 Norte 0 -- -- 49
2019-09-24 18:00:00 27.2 8 Norte 19 Noroeste 0 -- -- 42
2019-09-24 17:00:00 27.3 8 Norte 19 Norte 0 -- -- 43
2019-09-24 16:00:00 27.9 10 Nordeste 19 Norte 0 -- -- 43
2019-09-24 15:00:00 27 7 Nordeste 14 Norte 0 -- -- 44
2019-09-24 14:00:00 25.3 5 Nordeste 15 Nordeste 0 -- -- 45
2019-09-24 13:00:00 23.5 8 Nordeste 16 Nordeste 0 -- -- 51
2019-09-24 12:00:00 21.2 5 Nordeste 13 Nordeste 0 -- -- 61
2019-09-24 11:00:00 19 7 Nordeste 12 Nordeste 0 -- -- 69
2019-09-24 10:00:00 17.8 3 Nordeste 8 Sudeste 0 -- -- 70
2019-09-24 09:00:00 15.1 4 Noroeste 13 Nordeste 0 -- -- 76
2019-09-24 08:00:00 16.3 5 Este 13 Sudoeste 0 -- -- 70
2019-09-24 07:00:00 15.2 4 Nordeste 15 Nordeste 0 -- -- 75
2019-09-24 06:00:00 15.1 7 Este 15 Este 0 -- -- 76
2019-09-24 05:00:00 15.8 4 Sudeste 16 Sur 0 -- -- 72
2019-09-24 04:00:00 15.3 3 Sur 10 Oeste 0 -- -- 76
2019-09-24 03:00:00 15.8 3 Este 10 Sudoeste 0 -- -- 73
2019-09-24 02:00:00 15.9 2 Oeste 6 Oeste 0 -- -- 73
2019-09-24 01:00:00 16.3 4 Sudoeste 12 Oeste 0 -- -- 72
2019-09-24 00:00:00 16.9 2 Sudoeste 11 Oeste 0 -- -- 70
2019-09-23 23:00:00 18.1 4 Oeste 13 Oeste 0 -- -- 63
2019-09-23 22:00:00 19.3 3 Oeste 8 Oeste 0 -- -- 59
2019-09-23 21:00:00 20.8 0 Calma 5 Este 0 -- -- 55
2019-09-23 20:00:00 22.3 5 Sudeste 17 Sudeste 0 -- -- 48
2019-09-23 19:00:00 23.3 8 Sudeste 15 Sudeste 0 -- -- 45
2019-09-23 18:00:00 24 10 Sudeste 17 Sudeste 0 -- -- 42
2019-09-23 17:00:00 24.4 8 Sudeste 17 Sudeste 0 -- -- 42
2019-09-23 16:00:00 23.8 8 Sudeste 21 Sudeste 0 -- -- 42
2019-09-23 15:00:00 23.2 9 Sudeste 15 Sudeste 0 -- -- 44
2019-09-23 14:00:00 21.7 5 Sudeste 14 Sudeste 0 -- -- 54
2019-09-23 13:00:00 20.7 6 Sudeste 12 Este 0 -- -- 57
2019-09-23 12:00:00 18.8 5 Sudeste 10 Sudeste 0 -- -- 67
2019-09-23 11:00:00 17 4 Nordeste 9 Norte 0 -- -- 73
2019-09-23 10:00:00 15.5 4 Nordeste 6 Nordeste 0 -- -- 75
2019-09-23 09:00:00 12.7 2 Noroeste 6 Sudoeste 0 -- -- 80
2019-09-23 08:00:00 12.2 2 Noroeste 5 Oeste 0 -- -- 84
2019-09-23 07:00:00 12.2 3 Sudoeste 6 Sudoeste 0 -- -- 83
2019-09-23 06:00:00 13 2 Oeste 9 Sudoeste 0 -- -- 80
2019-09-23 05:00:00 14.2 0 Calma 7 Oeste 0 -- -- 80
2019-09-23 04:00:00 14.8 5 Oeste 11 Noroeste 0 -- -- 77
2019-09-23 03:00:00 15.5 4 Sudoeste 10 Noroeste 0 -- -- 79
2019-09-23 02:00:00 16.1 6 Noroeste 13 Noroeste 0 -- -- 77
2019-09-23 01:00:00 16.8 8 Noroeste 18 Noroeste 0 -- -- 74
2019-09-23 00:00:00 17.8 7 Noroeste 21 Norte -- -- -- 69
2019-09-22 23:00:00 19.5 5 Noroeste 17 Noroeste 0 -- -- 54
2019-09-22 22:00:00 20.3 3 Oeste 11 Noroeste 0 -- -- 53
2019-09-22 21:00:00 21.4 5 Norte 14 Norte 0 -- -- 47
2019-09-22 20:00:00 22 7 Norte 17 Norte 0 -- -- 49
2019-09-22 19:00:00 22.9 9 Norte 23 Norte 0 -- -- 44
2019-09-22 18:00:00 24 10 Norte 29 Norte 0 -- -- 44
2019-09-22 17:00:00 23.6 10 Norte 28 Norte 0 -- -- 47
2019-09-22 16:00:00 23.8 11 Norte 22 Norte 0 -- -- 50
2019-09-22 15:00:00 22.5 9 Norte 18 Nordeste 0 -- -- 58
2019-09-22 14:00:00 23 8 Norte 19 Norte 0 -- -- 58
2019-09-22 13:00:00 21.7 10 Norte 18 Nordeste 0 -- -- 60
2019-09-22 12:00:00 20.1 5 Nordeste 18 Norte 0 -- -- 69
2019-09-22 11:00:00 19.7 7 Norte 15 Norte 0 -- -- 75
2019-09-22 10:00:00 19.5 8 Norte 20 Noroeste 0 -- -- 76
2019-09-22 09:00:00 20.3 4 Oeste 12 Oeste 0 -- -- 81
2019-09-22 08:00:00 19.6 3 Nordeste 19 Sudeste 0 -- -- 88
2019-09-22 07:00:00 19.4 5 Sudeste 12 Este 0 -- -- 91
2019-09-22 06:00:00 19.4 2 Este 15 Sur 0 -- -- 91
2019-09-22 05:00:00 19.6 7 Sudeste 16 Sur 0 -- -- 90
2019-09-22 04:00:00 19.8 8 Sudeste 23 Sur 0 -- -- 88
2019-09-22 03:00:00 19.6 9 Sudeste 16 Sudeste 0 -- -- 87
2019-09-22 02:00:00 19.9 10 Sudeste 21 Sudeste 0.2 -- -- 85
2019-09-22 01:00:00 20.6 9 Sudeste 16 Sudeste 0 -- -- 77
2019-09-22 00:00:00 20.8 6 Sudeste 15 Sudeste 0 -- -- 76